• Join FlightAware (Why Join?)
  • Login
  • US Flag 
04:40PM EDT


 

Airport Tracker/Info


-or-


 

Live Flight TrackerFlight Track Log ✈ SKW6345 ✈ 21-Jun-2013 ✈ KSFO - KBZN

Flight Track Log - Related Links

Times and Time Zones

All times are in EDT time to prevent confusion due to time zone crossing. See the SKW6345 flight status page for this flight to view local times or setup timezone preferences in your user account.

Time Position Orientation Groundspeed Altitude Reporting Facility
EDT Latitude Longitude Course Direction KTS MPH feet Rate Location/Type
11:24AM 37.6500 -122.3500 38° Northeast 163 188 1,400  Level Northern Cal TRACON
11:25AM 37.7000 -122.3333 15° North 203 234 3,700 2,040 Climbing Northern Cal TRACON
11:26AM 37.7667 -122.3000 22° Northeast 257 296 5,500 1,920 Climbing Northern Cal TRACON
11:27AM 37.6804 -122.3030 38° Northeast  Level FlightAware Approximate
11:28AM 37.7822 -122.2012 38° Northeast  Level FlightAware Approximate
11:28AM 37.8486 -122.2064 42° Northeast 273 314 8,800  Level Oakland Center
11:29AM 37.8840 -122.0993 38° Northeast  Level FlightAware Approximate
11:29AM 37.9247 -122.1250 40° Northeast 296 341 11,600  Level Oakland Center
11:30AM 37.9908 -122.0531 41° Northeast 314 361 13,100 1,260 Climbing Oakland Center
11:31AM 38.0664 -121.9811 37° Northeast 338 389 14,300 1,260 Climbing Oakland Center
11:32AM 38.1494 -121.9161 32° Northeast 349 402 15,700 1,140 Climbing Oakland Center
11:33AM 38.2325 -121.8456 34° Northeast 359 413 16,700 1,140 Climbing Oakland Center
11:34AM 38.3183 -121.7728 34° Northeast 370 426 18,100 1,200 Climbing Oakland Center
11:35AM 38.4058 -121.6967 34° Northeast 380 437 19,200 1,020 Climbing Oakland Center
11:36AM 38.5019 -121.6167 33° Northeast 388 447 20,200 960 Climbing Oakland Center
11:37AM 38.5961 -121.5375 33° Northeast 398 458 21,200 960 Climbing Oakland Center
11:38AM 38.6922 -121.4561 33° Northeast 404 465 22,200 960 Climbing Oakland Center
11:39AM 38.7883 -121.3739 34° Northeast 409 471 23,200 1,020 Climbing Oakland Center
11:40AM 38.8828 -121.2919 34° Northeast 408 470 24,300 900 Climbing Oakland Center
11:41AM 38.9761 -121.2089 35° Northeast 406 467 25,100 780 Climbing Oakland Center
11:42AM 39.0908 -121.1092 34° Northeast 413 475 25,900 720 Climbing Oakland Center
11:43AM 39.1875 -121.0264 34° Northeast 417 480 26,600 720 Climbing Oakland Center
11:44AM 39.2836 -120.9403 35° Northeast 419 482 27,400 720 Climbing Oakland Center
11:45AM 39.3814 -120.8564 34° Northeast 421 484 28,100 540 Climbing Oakland Center
11:46AM 39.4786 -120.7706 34° Northeast 423 487 28,600 480 Climbing Oakland Center
11:47AM 39.5775 -120.6844 34° Northeast 428 493 29,100 480 Climbing Oakland Center
11:48AM 39.6769 -120.5956 35° Northeast 433 498 29,600 480 Climbing Oakland Center
11:49AM 39.7781 -120.5083 34° Northeast 435 501 30,100 480 Climbing Oakland Center
11:50AM 39.8769 -120.4175 35° Northeast 436 502 30,600 480 Climbing Oakland Center
11:51AM 39.9978 -120.3114 34° Northeast 436 502 31,200 480 Climbing Oakland Center
11:52AM 40.0919 -120.2281 34° Northeast 437 503 31,700 480 Climbing Oakland Center
11:53AM 40.1922 -120.1369 35° Northeast 437 503 32,200 480 Climbing Oakland Center
11:54AM 40.2925 -120.0458 35° Northeast 439 505 32,700 360 Climbing Oakland Center
11:55AM 40.3919 -119.9553 35° Northeast 437 503 33,000 120 Climbing Oakland Center
11:56AM 40.4928 -119.8636 35° Northeast 437 503 33,000  Level Oakland Center
11:57AM 40.6089 -119.7586 34° Northeast 440 506 33,000  Level Oakland Center
11:58AM 40.7133 -119.6614 35° Northeast 456 525 33,000  Level Oakland Center
11:59AM 40.8250 -119.5592 35° Northeast 462 532 33,000  Level Oakland Center
12:00PM 40.9256 -119.4664 35° Northeast 459 528 33,000  Level Oakland Center
12:01PM 41.0247 -119.3725 36° Northeast 459 528 33,000  Level Salt Lake Center
12:02PM 41.1267 -119.2797 34° Northeast 461 531 33,000  Level Salt Lake Center
12:03PM 41.2439 -119.1700 35° Northeast 461 531 33,000  Level Salt Lake Center
12:04PM 41.3444 -119.0747 35° Northeast 461 531 33,000  Level Salt Lake Center
12:06PM 41.4614 -118.9650 35° Northeast 461 531 33,000  Level Salt Lake Center
12:07PM 41.5619 -118.8697 35° Northeast 461 531 33,000  Level Salt Lake Center
12:08PM 41.6628 -118.7728 36° Northeast 463 533 33,000  Level Salt Lake Center
12:09PM 41.7786 -118.6619 35° Northeast 461 531 33,000  Level Salt Lake Center
12:10PM 41.8792 -118.5672 35° Northeast 460 529 33,000  Level Salt Lake Center
12:11PM 41.9958 -118.4528 36° Northeast 462 532 33,000  Level Salt Lake Center
12:12PM 42.0950 -118.3564 36° Northeast 461 531 33,000  Level Salt Lake Center
12:13PM 42.2106 -118.2447 36° Northeast 459 528 33,000  Level Salt Lake Center
12:14PM 42.3114 -118.1453 36° Northeast 463 533 33,000  Level Salt Lake Center
12:15PM 42.4275 -118.0286 37° Northeast 460 529 33,000  Level Salt Lake Center
12:16PM 42.5267 -117.9311 36° Northeast 460 529 33,000  Level Salt Lake Center
12:17PM 42.6297 -117.7964 44° Northeast 464 534 33,000  Level Salt Lake Center
12:18PM 42.7028 -117.6614 54° Northeast 464 534 33,000  Level Salt Lake Center
12:19PM 42.7756 -117.5261 54° Northeast 461 531 33,000  Level Salt Lake Center
12:20PM 42.8653 -117.3603 54° Northeast 468 539 33,000  Level Salt Lake Center
12:21PM 42.9381 -117.2225 54° Northeast 464 534 33,000  Level Salt Lake Center
12:22PM 43.0183 -117.0742 53° Northeast 465 535 33,000  Level Salt Lake Center
12:23PM 43.0972 -116.9250 54° Northeast 464 534 33,000  Level Salt Lake Center
12:24PM 43.1781 -116.7731 54° Northeast 470 541 33,000  Level Salt Lake Center
12:25PM 43.2569 -116.6228 54° Northeast 466 536 33,000  Level Salt Lake Center
12:26PM 43.3369 -116.4708 54° Northeast 470 541 33,000  Level Salt Lake Center
12:27PM 43.4103 -116.3294 54° Northeast 470 541 33,000  Level Salt Lake Center
12:28PM 43.4900 -116.1764 54° Northeast 471 542 33,000  Level Salt Lake Center
12:29PM 43.5694 -116.0217 55° Northeast 473 544 33,000  Level Salt Lake Center
12:30PM 43.6481 -115.8672 55° Northeast 471 542 33,000  Level Salt Lake Center
12:31PM 43.7275 -115.7122 55° Northeast 472 543 33,000  Level Salt Lake Center
12:32PM 43.8061 -115.5575 55° Northeast 469 540 33,000  Level Salt Lake Center
12:33PM 43.8792 -115.4139 55° Northeast 473 544 33,000  Level Salt Lake Center
12:34PM 43.9572 -115.2564 55° Northeast 474 545 33,000  Level Salt Lake Center
12:36PM 44.0361 -115.1006 55° Northeast 473 544 33,000  Level Salt Lake Center
12:37PM 44.1075 -114.9550 56° Northeast 475 547 33,000  Level Salt Lake Center
12:38PM 44.1914 -114.7875 55° Northeast 473 544 33,000  Level Salt Lake Center
12:39PM 44.2611 -114.6422 56° Northeast 471 542 33,000  Level Salt Lake Center
12:40PM 44.3436 -114.4742 55° Northeast 470 541 33,000  Level Salt Lake Center
12:41PM 44.4133 -114.3292 56° Northeast 470 541 33,000  Level Salt Lake Center
12:42PM 44.4947 -114.1614 56° Northeast 468 539 33,000  Level Salt Lake Center
12:43PM 44.5636 -114.0167 56° Northeast 466 536 33,000 -120 Level Salt Lake Center
12:44PM 44.6439 -113.8472 56° Northeast 466 536 32,800 -480 Descending Salt Lake Center
12:45PM 44.7117 -113.6989 57° Northeast 470 541 32,100 -780 Descending Salt Lake Center
12:46PM 44.7847 -113.5472 56° Northeast 484 557 31,300 -540 Descending Salt Lake Center
12:47PM 44.8714 -113.3658 56° Northeast 497 572 31,000 -180 Descending Salt Lake Center
12:48PM 44.9431 -113.2144 56° Northeast 487 560 31,000  Level Salt Lake Center
12:49PM 45.0231 -113.0381 57° Northeast 479 551 31,000  Level Salt Lake Center
12:50PM 45.0933 -112.8897 56° Northeast 474 545 31,000 -60 Level Salt Lake Center
12:51PM 45.1714 -112.7192 57° Northeast 466 536 30,900 -1,140 Descending Salt Lake Center
12:52PM 45.2358 -112.5742 58° Northeast 454 522 28,700 -2,640 Descending Salt Lake Center
12:54PM 45.3589 -112.2656 60° Northeast 425 489 22,800 -2,880 Descending Salt Lake Center
12:55PM 45.4158 -112.1164 61° Northeast 414 476 19,900 -2,580 Descending Salt Lake Center
12:56PM 45.4686 -111.9831 61° Northeast 394 453 17,500 -2,520 Descending Salt Lake Center
12:57PM 45.5183 -111.8542 61° Northeast 377 434 14,800 -2,160 Descending Salt Lake Center
12:58PM 45.5661 -111.7300 61° Northeast 363 418 13,100 -1,080 Descending Salt Lake Center
12:59PM 45.6161 -111.5972 62° Northeast 373 429 12,600 -900 Descending Salt Lake Center
01:00PM 45.6806 -111.4333 61° Northeast 388 447 11,300 -1,080 Descending Salt Lake Center
01:01PM 45.7564 -111.3558 35° Northeast 351 404 10,400 -600 Descending Salt Lake Center
01:02PM 45.8278 -111.3556 360° North 285 328 10,100 -300 Descending Salt Lake Center